Time;durP1;ratioP1;P1;durP2;ratioP2;P2;SDS_P1;SDS_P2;PMS_P1;PMS_P2;Temp;Humidity;BMP_temperature;BMP_pressure;BME280_temperature;BME280_humidity;BME280_pressure;Samples;Min_cycle;Max_cycle;Signal;HPM_P1;HPM_P2
2023/12/16 00:00:16;;;;;;;0.10;0.10;;;6.70;99.90;;;;;;5057707;28;20371;-89
2023/12/16 00:02:42;;;;;;;7.13;1.65;;;6.70;99.90;;;;;;5039519;28;20052;-89
2023/12/16 00:05:08;;;;;;;0.15;0.15;;;6.70;99.90;;;;;;5039258;28;20037;-89
2023/12/16 00:07:34;;;;;;;0.00;0.00;;;6.80;99.90;;;;;;5039257;28;20061;-89
2023/12/16 00:10:00;;;;;;;0.03;0.03;;;6.80;99.90;;;;;;5057807;28;20495;-89
2023/12/16 00:12:25;;;;;;;0.43;0.10;;;6.80;99.90;;;;;;5039354;28;20103;-89
2023/12/16 00:14:51;;;;;;;0.00;0.00;;;6.90;99.90;;;;;;5056956;28;20053;-89
2023/12/16 00:17:17;;;;;;;0.20;0.20;;;7.20;99.90;;;;;;5023259;28;20071;-90
2023/12/16 00:19:42;;;;;;;0.38;0.38;;;6.80;99.90;;;;;;5057652;28;20049;-90
2023/12/16 00:22:08;;;;;;;0.00;0.00;;;6.80;99.90;;;;;;5056944;28;20041;-90
2023/12/16 00:24:33;;;;;;;0.35;0.35;;;6.80;99.90;;;;;;5056017;28;20187;-89
2023/12/16 00:26:59;;;;;;;1.00;0.82;;;6.80;99.90;;;;;;5038018;28;20056;-89
2023/12/16 00:29:25;;;;;;;5.38;0.60;;;6.80;99.90;;;;;;5021537;28;20048;-90
2023/12/16 00:31:51;;;;;;;14.80;0.80;;;7.40;99.90;;;;;;5056084;28;20437;-89
2023/12/16 00:34:16;;;;;;;0.00;0.00;;;6.80;99.90;;;;;;5056294;28;20045;-89
2023/12/16 00:36:42;;;;;;;5.72;2.45;;;6.70;99.90;;;;;;5039939;28;20045;-90
2023/12/16 00:39:09;;;;;;;3.20;1.27;;;6.60;99.90;;;;;;5039316;28;20063;-89
2023/12/16 00:41:34;;;;;;;0.00;0.00;;;6.60;46.00;;;;;;5057152;28;20072;-90
2023/12/16 00:44:00;;;;;;;0.13;0.13;;;6.50;99.90;;;;;;5039367;28;20051;-90
2023/12/16 00:46:26;;;;;;;0.00;0.00;;;6.40;99.90;;;;;;5056818;28;20109;-89
2023/12/16 00:48:51;;;;;;;3.30;1.20;;;6.30;99.90;;;;;;5038736;28;20037;-90
2023/12/16 00:51:19;;;;;;;0.05;0.05;;;6.20;1.00;;;;;;5021821;28;20044;-89
2023/12/16 00:53:45;;;;;;;0.63;0.38;;;6.10;1.00;;;;;;5056954;28;20099;-90
2023/12/16 00:56:11;;;;;;;6.22;1.40;;;6.10;99.90;;;;;;5057569;28;20044;-90
2023/12/16 00:58:36;;;;;;;0.80;0.52;;;6.00;99.90;;;;;;5057765;28;20083;-90
2023/12/16 01:01:02;;;;;;;0.00;0.00;;;6.10;99.90;;;;;;5040807;28;20048;-90
2023/12/16 01:03:28;;;;;;;0.28;0.28;;;6.10;99.90;;;;;;5039544;28;20481;-91
2023/12/16 01:05:53;;;;;;;0.00;0.00;;;6.10;59.80;;;;;;5058514;28;20039;-90
2023/12/16 01:08:19;;;;;;;0.00;0.00;;;6.50;53.10;;;;;;5057448;28;20094;-90
2023/12/16 01:10:44;;;;;;;0.75;0.73;;;5.90;1.00;;;;;;5022765;28;20045;-90
2023/12/16 01:13:10;;;;;;;3.10;1.17;;;5.90;1.00;;;;;;5039450;28;20044;-90
2023/12/16 01:15:36;;;;;;;0.08;0.00;;;5.90;1.00;;;;;;5039249;28;20479;-89
2023/12/16 01:18:02;;;;;;;0.00;0.00;;;5.90;1.00;;;;;;5057284;28;20132;-90
2023/12/16 01:20:28;;;;;;;0.00;0.00;;;5.90;1.00;;;;;;5056810;28;20083;-90
2023/12/16 01:22:53;;;;;;;0.35;0.35;;;6.90;1.00;;;;;;5056659;28;20040;-90
2023/12/16 01:25:19;;;;;;;0.00;0.00;;;5.80;99.90;;;;;;5023168;28;20110;-90
2023/12/16 01:27:45;;;;;;;0.00;0.00;;;5.80;99.90;;;;;;5056901;28;20045;-90
2023/12/16 01:30:11;;;;;;;0.00;0.00;;;5.70;99.90;;;;;;5038859;28;20083;-90
2023/12/16 01:32:37;;;;;;;0.00;0.00;;;5.80;99.90;;;;;;5056138;28;20037;-91
2023/12/16 01:35:03;;;;;;;0.00;0.00;;;5.70;99.90;;;;;;5038205;28;20041;-90
2023/12/16 01:37:29;;;;;;;0.55;0.55;;;5.60;1.00;;;;;;5055651;28;20037;-89
2023/12/16 01:39:55;;;;;;;1.90;1.65;;;5.50;1.00;;;;;;5056104;28;20041;-90
2023/12/16 01:42:20;;;;;;;0.00;0.00;;;5.50;1.00;;;;;;5038213;28;20041;-90
2023/12/16 01:44:46;;;;;;;0.35;0.35;;;5.50;1.00;;;;;;5056503;28;20494;-90
2023/12/16 01:47:11;;;;;;;0.00;0.00;;;5.50;1.00;;;;;;5056723;28;20076;-90
2023/12/16 01:49:37;;;;;;;0.00;0.00;;;5.50;1.00;;;;;;5056614;28;20049;-90
2023/12/16 01:52:07;;;;;;;0.75;0.70;;;5.50;1.00;;;;;;5038977;28;20033;-90
2023/12/16 01:54:33;;;;;;;0.00;0.00;;;5.50;1.00;;;;;;5038829;28;20041;-90
2023/12/16 01:57:01;;;;;;;0.40;0.40;;;5.40;1.00;;;;;;5056432;28;20041;-90
2023/12/16 01:59:27;;;;;;;0.55;0.55;;;6.60;1.00;;;;;;5038199;28;20048;-90
2023/12/16 02:01:54;;;;;;;0.10;0.10;;;5.50;1.00;;;;;;5055606;28;20037;-90
2023/12/16 02:04:20;;;;;;;0.95;0.08;;;5.60;99.90;;;;;;5021216;28;20036;-90
2023/12/16 02:06:45;;;;;;;0.52;0.32;;;5.60;99.90;;;;;;5037656;28;20472;-90
2023/12/16 02:09:13;;;;;;;0.00;0.00;;;6.10;99.90;;;;;;5055634;28;20128;-90
2023/12/16 02:11:39;;;;;;;0.00;0.00;;;6.50;24.90;;;;;;5037382;28;20533;-89
2023/12/16 02:14:05;;;;;;;0.00;0.00;;;5.70;1.00;;;;;;5055183;28;20045;-90
2023/12/16 02:16:31;;;;;;;0.08;0.08;;;6.40;1.00;;;;;;5055226;28;20060;-90
2023/12/16 02:18:57;;;;;;;0.45;0.35;;;5.70;53.10;;;;;;5021323;28;20517;-90
2023/12/16 02:21:22;;;;;;;0.00;0.00;;;5.60;99.90;;;;;;5054634;28;20052;-90
2023/12/16 02:23:48;;;;;;;0.08;0.08;;;5.60;99.90;;;;;;5036573;28;20049;-90
2023/12/16 02:26:13;;;;;;;0.25;0.10;;;5.60;99.90;;;;;;5054799;28;20094;-90
2023/12/16 02:28:39;;;;;;;0.00;0.00;;;5.60;99.90;;;;;;5036758;28;20463;-90
2023/12/16 02:31:05;;;;;;;1.25;1.10;;;5.60;99.90;;;;;;5036440;28;20081;-90
2023/12/16 02:33:31;;;;;;;0.00;0.00;;;5.50;99.90;;;;;;5020775;28;20084;-89
2023/12/16 02:35:56;;;;;;;0.20;0.20;;;5.50;99.90;;;;;;5021175;28;20048;-90
2023/12/16 02:38:22;;;;;;;0.00;0.00;;;5.50;99.90;;;;;;5037524;28;20045;-90
2023/12/16 02:40:48;;;;;;;0.00;0.00;;;5.50;99.90;;;;;;5037269;28;20037;-89
2023/12/16 02:43:14;;;;;;;0.00;0.00;;;5.40;99.90;;;;;;5054097;28;20052;-90
2023/12/16 02:45:40;;;;;;;0.00;0.00;;;5.20;99.90;;;;;;5036072;28;20045;-90
2023/12/16 02:48:05;;;;;;;2.92;1.50;;;5.10;99.90;;;;;;5036553;28;20048;-90
2023/12/16 02:50:31;;;;;;;0.32;0.32;;;5.10;1.00;;;;;;5054207;28;20033;-90
2023/12/16 02:52:56;;;;;;;0.30;0.30;;;5.00;1.00;;;;;;5036735;28;20076;-90
2023/12/16 02:55:22;;;;;;;0.10;0.10;;;5.00;1.00;;;;;;5054869;28;20120;-90
2023/12/16 02:57:48;;;;;;;0.00;0.00;;;4.90;1.00;;;;;;5054863;28;20045;-90
2023/12/16 03:00:14;;;;;;;0.08;0.08;;;4.90;1.00;;;;;;5054848;28;20441;-90
2023/12/16 03:02:40;;;;;;;0.00;0.00;;;4.90;1.00;;;;;;5037340;28;20045;-90
2023/12/16 03:05:06;;;;;;;0.00;0.00;;;4.90;1.00;;;;;;5056299;28;20099;-90
2023/12/16 03:07:31;;;;;;;0.93;0.50;;;4.80;19.50;;;;;;5054911;28;20041;-90
2023/12/16 03:09:57;;;;;;;0.00;0.00;;;4.70;99.90;;;;;;5054529;28;20040;-90
2023/12/16 03:12:24;;;;;;;0.00;0.00;;;4.70;99.90;;;;;;5054224;28;20041;-91
2023/12/16 03:14:50;;;;;;;0.00;0.00;;;4.80;99.90;;;;;;5056250;28;20502;-90
2023/12/16 03:17:16;;;;;;;0.20;0.20;;;4.80;99.90;;;;;;5058500;28;20037;-90
2023/12/16 03:19:42;;;;;;;0.55;0.55;;;4.80;99.90;;;;;;5040716;28;20145;-90
2023/12/16 03:22:08;;;;;;;0.00;0.00;;;4.80;99.90;;;;;;5059627;28;20040;-90
2023/12/16 03:24:33;;;;;;;1.15;1.02;;;4.90;99.90;;;;;;5040147;28;20175;-90
2023/12/16 03:26:59;;;;;;;0.20;0.20;;;4.90;99.90;;;;;;5058080;28;20065;-90
2023/12/16 03:29:25;;;;;;;0.00;0.00;;;4.90;99.90;;;;;;5058310;28;20044;-90
2023/12/16 03:31:50;;;;;;;0.00;0.00;;;4.90;21.90;;;;;;5057904;28;20037;-90
2023/12/16 03:34:16;;;;;;;0.15;0.15;;;4.90;46.50;;;;;;5039645;28;20045;-90
2023/12/16 03:36:42;;;;;;;0.00;0.00;;;4.70;89.80;;;;;;5057933;28;20048;-90
2023/12/16 03:39:07;;;;;;;0.30;0.15;;;4.70;99.90;;;;;;5057452;28;20467;-90
2023/12/16 03:41:34;;;;;;;0.32;0.32;;;4.70;99.90;;;;;;5023022;28;20081;-90
2023/12/16 03:44:00;;;;;;;0.50;0.22;;;4.70;99.90;;;;;;5057758;28;20056;-89
2023/12/16 03:46:26;;;;;;;6.25;0.50;;;4.70;99.90;;;;;;5058031;28;20041;-89
2023/12/16 03:48:52;;;;;;;1.85;0.70;;;4.70;99.90;;;;;;5040730;28;20079;-90
2023/12/16 03:51:20;;;;;;;0.10;0.10;;;4.70;99.90;;;;;;5058250;28;20048;-90
2023/12/16 03:53:46;;;;;;;0.00;0.00;;;4.70;99.90;;;;;;5040130;28;20422;-89
2023/12/16 03:56:11;;;;;;;4.57;0.98;;;4.80;99.90;;;;;;5058316;28;20045;-89
2023/12/16 03:58:37;;;;;;;0.30;0.30;;;4.80;99.90;;;;;;5058507;28;20048;-90
2023/12/16 04:01:04;;;;;;;0.00;0.00;;;4.60;99.90;;;;;;5058622;28;20032;-89
2023/12/16 04:03:29;;;;;;;0.00;0.00;;;4.80;99.90;;;;;;5060108;28;20044;-89
2023/12/16 04:05:55;;;;;;;1.00;0.60;;;4.70;99.90;;;;;;5059987;28;20441;-89
2023/12/16 04:08:21;;;;;;;0.00;0.00;;;4.80;99.90;;;;;;5063584;28;20131;-89
2023/12/16 04:10:46;;;;;;;0.00;0.00;;;4.80;99.90;;;;;;5057569;28;20049;-89
2023/12/16 04:13:14;;;;;;;0.10;0.10;;;4.70;99.90;;;;;;5056211;28;20106;-89
2023/12/16 04:15:40;;;;;;;0.00;0.00;;;4.70;99.90;;;;;;5038880;28;20064;-89
2023/12/16 04:18:05;;;;;;;0.00;0.00;;;4.60;99.90;;;;;;5038896;28;20407;-89
2023/12/16 04:20:31;;;;;;;0.00;0.00;;;4.60;99.90;;;;;;5056792;28;20039;-89
2023/12/16 04:22:57;;;;;;;0.95;0.85;;;4.50;99.90;;;;;;5056970;28;20033;-89
2023/12/16 04:25:22;;;;;;;0.00;0.00;;;4.50;99.90;;;;;;5039094;28;20537;-89
2023/12/16 04:27:48;;;;;;;0.00;0.00;;;4.60;99.90;;;;;;5040072;28;20422;-89
2023/12/16 04:30:13;;;;;;;0.25;0.25;;;4.40;99.90;;;;;;5039373;28;20048;-89
2023/12/16 04:32:39;;;;;;;0.00;0.00;;;4.70;99.90;;;;;;5057467;28;20144;-90
2023/12/16 04:35:05;;;;;;;4.10;2.72;;;4.70;99.90;;;;;;5056913;28;20064;-89
2023/12/16 04:37:31;;;;;;;0.00;0.00;;;4.70;99.90;;;;;;5038575;28;20082;-89
2023/12/16 04:39:56;;;;;;;2.63;1.75;;;4.60;99.90;;;;;;5056320;28;20041;-89
2023/12/16 04:42:22;;;;;;;3.35;1.13;;;4.70;99.90;;;;;;5021643;28;20063;-89
2023/12/16 04:44:47;;;;;;;1.20;1.10;;;4.70;99.90;;;;;;5057021;28;20040;-89
2023/12/16 04:47:13;;;;;;;0.82;0.60;;;4.70;99.90;;;;;;5057007;28;20378;-89
2023/12/16 04:49:40;;;;;;;0.00;0.00;;;4.80;99.90;;;;;;5056297;28;20443;-89
2023/12/16 04:52:06;;;;;;;5.78;1.75;;;4.90;99.90;;;;;;5056959;28;20037;-89
2023/12/16 04:54:31;;;;;;;0.00;0.00;;;4.90;99.90;;;;;;5039266;28;20044;-90
2023/12/16 04:56:57;;;;;;;0.10;0.10;;;4.90;99.90;;;;;;5038658;28;20041;-90
2023/12/16 04:59:22;;;;;;;1.13;0.77;;;4.90;99.90;;;;;;5057047;28;20071;-90
2023/12/16 05:01:48;;;;;;;0.17;0.17;;;4.90;99.90;;;;;;5039296;28;20036;-90
2023/12/16 05:04:13;;;;;;;0.30;0.30;;;5.00;70.60;;;;;;5057036;28;20041;-89
2023/12/16 05:06:39;;;;;;;0.40;0.40;;;5.00;1.00;;;;;;5066701;28;20128;-90
2023/12/16 05:09:12;;;;;;;0.20;0.20;;;4.90;1.00;;;;;;5074954;28;20433;-90
2023/12/16 05:11:38;;;;;;;0.08;0.08;;;6.10;1.00;;;;;;5054839;28;20077;-90
2023/12/16 05:14:03;;;;;;;0.00;0.00;;;4.90;1.00;;;;;;5044223;28;20075;-90
2023/12/16 05:16:29;;;;;;;0.20;0.20;;;5.00;1.00;;;;;;5074541;28;20040;-90
2023/12/16 05:18:55;;;;;;;3.10;0.50;;;4.90;1.00;;;;;;5055999;28;20041;-90
2023/12/16 05:21:21;;;;;;;0.00;0.00;;;4.90;1.00;;;;;;5057496;28;20181;-90
2023/12/16 05:23:46;;;;;;;0.45;0.45;;;4.90;1.00;;;;;;5056124;28;20053;-90
2023/12/16 05:26:12;;;;;;;0.00;0.00;;;4.90;1.00;;;;;;5073887;28;20036;-90
2023/12/16 05:28:38;;;;;;;0.70;0.70;;;4.90;1.00;;;;;;5073422;28;20083;-89
2023/12/16 05:31:03;;;;;;;0.17;0.17;;;4.90;1.00;;;;;;5073118;28;20079;-90
2023/12/16 05:33:29;;;;;;;1.00;0.80;;;5.00;1.00;;;;;;5055264;28;20391;-90
2023/12/16 05:35:55;;;;;;;0.17;0.15;;;4.90;1.00;;;;;;5055433;28;20044;-90
2023/12/16 05:38:20;;;;;;;0.00;0.00;;;4.90;1.00;;;;;;5019695;28;20037;-89
2023/12/16 05:40:46;;;;;;;0.30;0.30;;;4.90;1.00;;;;;;5053356;28;20494;-88
2023/12/16 05:43:11;;;;;;;0.00;0.00;;;6.30;1.00;;;;;;5053153;28;20124;-88
2023/12/16 05:45:37;;;;;;;0.15;0.15;;;5.00;1.00;;;;;;5035182;28;20048;-88
2023/12/16 05:48:02;;;;;;;0.75;0.73;;;5.00;1.00;;;;;;5053253;28;20534;-88
2023/12/16 05:50:28;;;;;;;0.35;0.35;;;5.00;1.00;;;;;;5035088;28;20048;-88
2023/12/16 05:52:53;;;;;;;3.00;1.65;;;5.00;1.00;;;;;;5034990;28;20414;-88
2023/12/16 05:55:19;;;;;;;0.10;0.10;;;5.00;6.10;;;;;;5053419;28;20047;-89
2023/12/16 05:57:45;;;;;;;1.17;1.08;;;5.00;99.90;;;;;;5035163;28;20099;-89
2023/12/16 06:00:11;;;;;;;1.92;0.90;;;5.10;99.90;;;;;;5053258;28;20486;-89
2023/12/16 06:02:36;;;;;;;5.32;2.53;;;5.20;99.90;;;;;;5046019;28;20044;-88
2023/12/16 06:05:02;;;;;;;1.15;0.80;;;5.30;99.90;;;;;;5072909;28;20059;-89
2023/12/16 06:07:28;;;;;;;1.98;0.25;;;5.50;99.90;;;;;;5054992;28;20063;-88
2023/12/16 06:09:54;;;;;;;8.25;1.65;;;5.60;69.00;;;;;;5062069;28;20049;-89
2023/12/16 06:12:19;;;;;;;18.63;1.15;;;5.70;1.00;;;;;;5053290;28;20047;-89
2023/12/16 06:14:46;;;;;;;1.42;0.82;;;5.80;1.00;;;;;;5035262;28;20041;-89
2023/12/16 06:17:12;;;;;;;0.08;0.08;;;5.80;1.00;;;;;;5053249;28;20094;-89
2023/12/16 06:19:37;;;;;;;0.10;0.10;;;5.90;1.00;;;;;;5053090;28;20045;-88
2023/12/16 06:22:03;;;;;;;0.68;0.68;;;6.00;1.00;;;;;;5018987;28;20045;-88
2023/12/16 06:24:29;;;;;;;0.00;0.00;;;6.00;99.90;;;;;;5053102;28;20041;-88
2023/12/16 06:26:54;;;;;;;0.10;0.10;;;6.10;99.90;;;;;;5035254;28;20045;-89
2023/12/16 06:29:20;;;;;;;0.05;0.05;;;6.10;99.90;;;;;;5052689;28;20434;-89
2023/12/16 06:31:46;;;;;;;0.93;0.68;;;6.10;99.90;;;;;;5018365;28;20045;-89
2023/12/16 06:34:11;;;;;;;0.30;0.30;;;6.20;99.90;;;;;;5053126;28;20372;-88
2023/12/16 06:36:37;;;;;;;0.28;0.28;;;5.70;99.90;;;;;;5018581;28;20049;-89
2023/12/16 06:39:03;;;;;;;0.20;0.20;;;6.30;99.90;;;;;;5052894;28;20474;-89
2023/12/16 06:41:30;;;;;;;0.10;0.10;;;6.30;99.90;;;;;;5053069;28;20044;-89
2023/12/16 06:43:55;;;;;;;0.10;0.08;;;6.30;83.60;;;;;;5052964;28;20049;-89
2023/12/16 06:46:23;;;;;;;0.10;0.10;;;6.30;99.90;;;;;;5052887;28;20094;-89
2023/12/16 06:48:49;;;;;;;0.00;0.00;;;6.40;99.90;;;;;;5055260;28;20045;-89
2023/12/16 06:51:15;;;;;;;2.33;1.27;;;6.40;99.90;;;;;;5056249;28;20494;-89
2023/12/16 06:53:41;;;;;;;0.00;0.00;;;6.40;99.90;;;;;;5056641;28;20037;-89
2023/12/16 06:56:09;;;;;;;0.10;0.10;;;6.40;99.90;;;;;;5056550;28;20041;-88
2023/12/16 06:58:35;;;;;;;0.38;0.38;;;6.40;99.90;;;;;;5057295;28;20048;-89
2023/12/16 07:01:01;;;;;;;0.00;0.00;;;6.40;99.90;;;;;;5076437;28;20040;-89
2023/12/16 07:03:28;;;;;;;0.75;0.65;;;6.50;45.10;;;;;;5076209;28;20067;-89
2023/12/16 07:05:57;;;;;;;0.13;0.13;;;6.50;45.40;;;;;;5076439;28;20044;-89
2023/12/16 07:08:23;;;;;;;0.00;0.00;;;6.50;88.20;;;;;;5058351;28;20048;-89
2023/12/16 07:10:49;;;;;;;3.03;1.95;;;6.50;99.90;;;;;;5074731;28;20040;-89
2023/12/16 07:13:14;;;;;;;0.10;0.10;;;6.60;1.20;;;;;;5038194;28;20090;-89
2023/12/16 07:15:40;;;;;;;0.82;0.55;;;6.60;49.30;;;;;;5038508;28;20083;-89
2023/12/16 07:18:06;;;;;;;2.30;2.10;;;6.60;73.40;;;;;;5038212;28;20477;-89
2023/12/16 07:20:31;;;;;;;1.20;1.02;;;6.60;92.70;;;;;;5056108;28;20041;-89
2023/12/16 07:22:57;;;;;;;0.08;0.08;;;6.60;53.00;;;;;;5038174;28;20053;-88
2023/12/16 07:25:22;;;;;;;0.00;0.00;;;6.60;99.90;;;;;;5056331;28;20045;-88
2023/12/16 07:27:48;;;;;;;0.93;0.88;;;6.60;11.60;;;;;;5056267;28;20045;-88
2023/12/16 07:30:15;;;;;;;0.45;0.45;;;6.80;69.20;;;;;;5056229;28;20041;-88
2023/12/16 07:32:41;;;;;;;4.15;1.42;;;6.70;90.30;;;;;;5055752;28;20049;-88
2023/12/16 07:35:12;;;;;;;0.85;0.68;;;6.80;1.00;;;;;;5055938;28;20052;-89
2023/12/16 07:37:42;;;;;;;0.15;0.10;;;6.80;1.00;;;;;;5055740;28;20398;-88
2023/12/16 07:40:08;;;;;;;3.47;1.67;;;6.80;1.00;;;;;;5055826;28;20041;-88
2023/12/16 07:42:36;;;;;;;0.13;0.13;;;6.70;99.90;;;;;;5056116;28;20470;-87
2023/12/16 07:45:03;;;;;;;0.52;0.52;;;6.70;99.90;;;;;;5037905;28;20049;-87
2023/12/16 07:47:28;;;;;;;1.67;0.90;;;6.60;99.90;;;;;;5056431;28;20045;-88
2023/12/16 07:49:54;;;;;;;0.80;0.75;;;6.70;99.90;;;;;;5037521;28;20138;-88
2023/12/16 07:52:19;;;;;;;0.40;0.40;;;6.70;99.90;;;;;;5041027;28;20051;-88
2023/12/16 07:54:45;;;;;;;0.25;0.25;;;6.70;99.90;;;;;;5060162;28;20048;-87
2023/12/16 07:57:11;;;;;;;0.17;0.17;;;6.80;99.90;;;;;;5037470;28;20056;-87
2023/12/16 07:59:39;;;;;;;0.22;0.22;;;6.70;99.90;;;;;;5054402;28;20053;-87
2023/12/16 08:02:08;;;;;;;0.63;0.45;;;6.70;99.90;;;;;;5055173;28;20041;-87
2023/12/16 08:04:33;;;;;;;0.40;0.32;;;7.40;1.00;;;;;;5074142;28;20037;-88
2023/12/16 08:06:59;;;;;;;4.00;1.15;;;6.80;1.00;;;;;;5054739;28;20053;-88
2023/12/16 08:09:24;;;;;;;0.85;0.65;;;6.80;1.00;;;;;;5054928;28;20053;-87
2023/12/16 08:11:50;;;;;;;3.17;1.75;;;6.80;1.00;;;;;;5054749;28;20079;-87
2023/12/16 08:14:16;;;;;;;0.60;0.52;;;6.90;1.00;;;;;;5058283;28;20033;-88
2023/12/16 08:16:41;;;;;;;2.70;1.33;;;6.90;1.00;;;;;;5037146;28;20048;-87
2023/12/16 08:19:08;;;;;;;6.07;1.27;;;6.90;1.00;;;;;;5054196;28;20120;-88
2023/12/16 08:21:33;;;;;;;0.55;0.55;;;6.90;1.00;;;;;;5052826;28;20560;-87
2023/12/16 08:23:59;;;;;;;0.50;0.50;;;6.90;1.00;;;;;;5066730;28;20044;-87
2023/12/16 08:26:27;;;;;;;4.60;2.20;;;7.40;1.00;;;;;;5053397;28;20073;-88
2023/12/16 08:28:52;;;;;;;0.80;0.47;;;7.00;1.00;;;;;;5053037;28;20506;-87
2023/12/16 08:31:18;;;;;;;1.13;1.02;;;6.90;1.00;;;;;;5034995;28;20115;-87
2023/12/16 08:33:43;;;;;;;6.55;0.85;;;6.90;99.90;;;;;;5046781;28;20508;-88
2023/12/16 08:36:09;;;;;;;3.03;1.40;;;7.70;99.90;;;;;;5045593;28;20041;-88
2023/12/16 08:38:39;;;;;;;0.20;0.20;;;6.90;1.00;;;;;;5053252;28;20080;-87
2023/12/16 08:41:10;;;;;;;0.73;0.63;;;6.80;1.00;;;;;;5034638;28;20057;-88
2023/12/16 08:43:37;;;;;;;0.45;0.40;;;6.90;1.00;;;;;;5026929;28;20049;-88
2023/12/16 08:46:06;;;;;;;3.65;2.05;;;6.90;1.00;;;;;;5052869;28;20464;-88
2023/12/16 08:48:31;;;;;;;2.30;1.65;;;6.90;30.10;;;;;;5034893;28;20383;-87
2023/12/16 08:50:57;;;;;;;0.38;0.38;;;7.00;98.30;;;;;;5018083;28;20055;-88
2023/12/16 08:53:24;;;;;;;1.70;1.02;;;7.00;99.90;;;;;;5060146;28;20045;-88
2023/12/16 08:55:50;;;;;;;0.80;0.70;;;7.10;99.90;;;;;;5052453;28;20398;-88
2023/12/16 08:58:16;;;;;;;2.40;1.35;;;7.10;99.90;;;;;;5052340;28;20064;-88
2023/12/16 09:00:42;;;;;;;10.25;2.33;;;7.10;99.90;;;;;;5033985;28;20055;-88
2023/12/16 09:03:07;;;;;;;6.88;1.85;;;7.10;99.90;;;;;;5034742;28;20119;-88
2023/12/16 09:05:34;;;;;;;1.40;0.82;;;7.10;99.90;;;;;;5052240;28;20044;-88
2023/12/16 09:07:59;;;;;;;1.05;0.70;;;7.50;99.90;;;;;;5032999;28;20499;-88
2023/12/16 09:10:25;;;;;;;0.00;0.00;;;7.10;67.60;;;;;;5052038;28;20056;-88
2023/12/16 09:12:51;;;;;;;0.80;0.65;;;7.10;99.90;;;;;;5033275;28;20077;-88
2023/12/16 09:15:17;;;;;;;0.52;0.52;;;7.00;99.90;;;;;;5034416;28;20041;-89
2023/12/16 09:17:44;;;;;;;0.68;0.68;;;7.00;99.90;;;;;;5052618;28;20418;-89
2023/12/16 09:20:10;;;;;;;1.27;0.95;;;7.10;99.90;;;;;;5034944;28;20427;-89
2023/12/16 09:22:36;;;;;;;0.40;0.40;;;7.60;99.90;;;;;;5054541;28;20040;-89
2023/12/16 09:25:04;;;;;;;0.52;0.47;;;7.00;99.90;;;;;;5036099;28;20041;-89
2023/12/16 09:27:29;;;;;;;2.00;1.85;;;8.20;99.90;;;;;;5018619;28;20044;-89
2023/12/16 09:29:55;;;;;;;2.65;1.08;;;7.00;99.90;;;;;;5033990;28;20418;-88
2023/12/16 09:32:21;;;;;;;0.25;0.25;;;8.20;99.90;;;;;;5034504;28;20048;-89
2023/12/16 09:34:47;;;;;;;5.20;1.08;;;6.90;99.90;;;;;;5034825;28;20048;-89
2023/12/16 09:37:14;;;;;;;0.52;0.32;;;6.90;99.90;;;;;;5049031;28;20053;-88
2023/12/16 09:39:40;;;;;;;5.28;1.25;;;6.90;99.90;;;;;;5050296;28;20050;-88
2023/12/16 09:42:06;;;;;;;10.15;1.27;;;6.90;1.00;;;;;;5050289;28;20052;-88
2023/12/16 09:44:37;;;;;;;2.03;1.65;;;7.20;5.70;;;;;;5031781;28;20049;-88
2023/12/16 09:47:03;;;;;;;0.82;0.82;;;7.00;1.00;;;;;;5046204;28;20041;-88
2023/12/16 09:49:32;;;;;;;1.27;0.70;;;7.00;52.60;;;;;;5050101;28;20048;-88
2023/12/16 09:51:58;;;;;;;6.40;1.90;;;7.00;94.50;;;;;;5032534;28;20846;-87
2023/12/16 09:54:24;;;;;;;6.53;1.95;;;7.10;99.90;;;;;;5048241;28;20036;-87
2023/12/16 09:56:50;;;;;;;1.10;1.00;;;7.10;99.90;;;;;;5044211;28;20102;-87
2023/12/16 09:59:20;;;;;;;23.10;1.65;;;7.10;99.90;;;;;;5051044;28;20053;-86
2023/12/16 10:01:52;;;;;;;0.75;0.75;;;7.10;99.90;;;;;;5047019;28;20048;-87
2023/12/16 10:04:19;;;;;;;0.30;0.30;;;7.10;99.90;;;;;;5036797;28;20049;-87
2023/12/16 10:06:45;;;;;;;0.95;0.88;;;8.30;99.90;;;;;;5031830;28;20087;-87
2023/12/16 10:09:10;;;;;;;1.92;1.83;;;7.10;99.90;;;;;;5056873;28;20079;-87
2023/12/16 10:11:40;;;;;;;1.63;1.52;;;7.10;99.90;;;;;;5039646;28;20094;-87
2023/12/16 10:14:06;;;;;;;0.10;0.10;;;7.10;78.10;;;;;;5050330;28;20091;-87
2023/12/16 10:16:31;;;;;;;0.47;0.47;;;7.20;57.80;;;;;;5050620;28;20041;-87
2023/12/16 10:18:58;;;;;;;17.00;1.33;;;7.20;1.00;;;;;;5050218;28;20426;-87
2023/12/16 10:21:25;;;;;;;0.35;0.35;;;7.90;1.00;;;;;;5037450;28;20051;-87
2023/12/16 10:23:51;;;;;;;0.93;0.88;;;7.20;1.00;;;;;;5053144;28;20095;-87
2023/12/16 10:26:17;;;;;;;15.10;0.63;;;7.20;29.70;;;;;;5036815;28;20048;-87
2023/12/16 10:28:46;;;;;;;1.15;0.45;;;7.30;18.40;;;;;;5064003;28;20387;-87
2023/12/16 10:31:13;;;;;;;3.40;1.85;;;7.20;1.00;;;;;;5055094;28;20110;-87
2023/12/16 10:33:38;;;;;;;0.47;0.47;;;7.20;1.00;;;;;;5058847;28;20095;-87
2023/12/16 10:36:04;;;;;;;3.03;1.00;;;7.30;31.90;;;;;;5058380;28;20426;-87
2023/12/16 10:38:30;;;;;;;0.38;0.35;;;7.30;56.70;;;;;;5060257;28;20048;-87
2023/12/16 10:40:56;;;;;;;1.73;1.45;;;8.00;1.00;;;;;;5063188;28;20048;-88
2023/12/16 10:43:21;;;;;;;2.40;2.08;;;7.30;13.60;;;;;;5071900;28;20036;-89
2023/12/16 10:45:49;;;;;;;7.72;2.03;;;8.60;40.20;;;;;;5034964;28;20080;-88
2023/12/16 10:48:18;;;;;;;2.45;0.75;;;7.30;70.10;;;;;;5036423;28;20803;-88
2023/12/16 10:50:47;;;;;;;1.00;0.68;;;7.30;99.90;;;;;;5048080;28;20056;-88
2023/12/16 10:53:36;;;;;;;3.25;0.85;;;7.30;36.20;;;;;;5051254;28;20044;-88
2023/12/16 10:56:07;;;;;;;0.52;0.52;;;7.30;59.00;;;;;;5054669;28;20494;-88
2023/12/16 10:58:38;;;;;;;0.20;0.20;;;7.40;77.60;;;;;;5036390;28;20057;-88
2023/12/16 11:01:16;;;;;;;1.13;1.02;;;7.40;78.80;;;;;;5054241;28;20399;-87
2023/12/16 11:04:02;;;;;;;0.55;0.45;;;7.40;99.90;;;;;;5039609;28;20045;-87
2023/12/16 11:06:58;;;;;;;1.15;0.93;;;7.40;99.90;;;;;;5054021;28;20076;-87
2023/12/16 11:09:24;;;;;;;0.35;0.35;;;7.40;99.90;;;;;;5047516;28;20055;-87
2023/12/16 11:11:50;;;;;;;1.98;1.02;;;7.40;62.80;;;;;;5047704;28;20033;-88
2023/12/16 11:14:17;;;;;;;0.20;0.20;;;7.40;15.90;;;;;;5035889;28;20084;-88
2023/12/16 11:16:58;;;;;;;0.68;0.68;;;7.40;27.90;;;;;;5030402;28;20057;-88
2023/12/16 11:19:29;;;;;;;0.63;0.60;;;7.50;15.00;;;;;;5048953;28;20107;-87
2023/12/16 11:21:55;;;;;;;0.00;0.00;;;7.50;22.30;;;;;;5043565;28;20080;-88
2023/12/16 11:24:20;;;;;;;0.30;0.30;;;7.50;64.80;;;;;;5054469;28;20059;-87
2023/12/16 11:26:51;;;;;;;1.55;1.45;;;7.50;1.00;;;;;;5045081;28;20094;-86
2023/12/16 11:29:21;;;;;;;3.03;1.75;;;7.50;9.80;;;;;;5053974;28;20073;-87
2023/12/16 11:31:51;;;;;;;0.90;0.85;;;7.60;68.50;;;;;;5049997;28;20055;-87
2023/12/16 11:34:40;;;;;;;0.13;0.13;;;7.60;41.60;;;;;;5034822;28;20480;-87
2023/12/16 11:37:06;;;;;;;3.05;1.35;;;7.60;21.10;;;;;;5053194;28;20131;-87
2023/12/16 11:39:44;;;;;;;0.55;0.52;;;7.70;27.10;;;;;;5053654;28;20115;-87
2023/12/16 11:42:11;;;;;;;12.50;0.77;;;7.70;60.70;;;;;;5035653;28;20127;-87
2023/12/16 11:44:49;;;;;;;0.52;0.52;;;7.70;75.70;;;;;;5018523;28;20051;-87
2023/12/16 11:47:21;;;;;;;0.63;0.52;;;7.70;7.50;;;;;;5053415;28;20041;-87
2023/12/16 11:49:47;;;;;;;1.42;1.33;;;8.90;40.00;;;;;;5035632;28;20564;-87
2023/12/16 11:52:15;;;;;;;1.52;1.42;;;7.80;72.90;;;;;;5034973;28;20056;-87
2023/12/16 11:54:42;;;;;;;3.42;1.58;;;7.80;80.60;;;;;;5036194;28;20052;-87
2023/12/16 11:57:08;;;;;;;1.75;1.65;;;7.80;68.40;;;;;;5054293;28;20060;-87
2023/12/16 11:59:34;;;;;;;1.98;1.25;;;7.90;99.90;;;;;;5040886;28;20040;-87
2023/12/16 12:01:59;;;;;;;2.53;0.95;;;7.90;99.90;;;;;;5060829;28;20076;-88
2023/12/16 12:04:25;;;;;;;0.50;0.47;;;8.70;99.90;;;;;;5018702;28;20037;-88
2023/12/16 12:06:51;;;;;;;1.15;0.95;;;8.00;99.90;;;;;;5034771;28;20052;-88
2023/12/16 12:09:17;;;;;;;1.30;1.05;;;8.00;99.90;;;;;;5053078;28;20132;-88
2023/12/16 12:11:42;;;;;;;0.63;0.63;;;8.00;99.90;;;;;;5053707;28;20049;-88
2023/12/16 12:14:08;;;;;;;1.05;0.95;;;8.10;99.90;;;;;;5055216;28;20033;-88
2023/12/16 12:16:33;;;;;;;10.98;1.35;;;8.10;99.90;;;;;;5053152;28;20048;-88
2023/12/16 12:19:01;;;;;;;1.88;0.85;;;8.10;99.90;;;;;;5052917;28;20048;-88
2023/12/16 12:21:27;;;;;;;1.08;0.60;;;8.20;99.90;;;;;;5034859;28;20049;-87
2023/12/16 12:23:52;;;;;;;1.20;1.10;;;8.20;99.90;;;;;;5037814;28;20090;-88
2023/12/16 12:26:21;;;;;;;0.30;0.30;;;9.70;99.90;;;;;;5066738;28;20123;-88
2023/12/16 12:29:01;;;;;;;0.80;0.80;;;8.30;99.90;;;;;;5023819;28;20041;-88
2023/12/16 12:31:27;;;;;;;1.00;0.32;;;8.40;99.90;;;;;;4998892;28;20059;-88
2023/12/16 12:33:53;;;;;;;0.98;0.68;;;8.40;99.90;;;;;;5041617;28;20029;-88
2023/12/16 12:36:18;;;;;;;0.00;0.00;;;8.40;99.90;;;;;;5042674;28;20052;-88
2023/12/16 12:38:54;;;;;;;17.35;1.38;;;8.40;99.90;;;;;;5053075;28;20044;-88
2023/12/16 12:41:20;;;;;;;1.52;0.52;;;8.50;99.90;;;;;;5068504;28;20076;-88
2023/12/16 12:43:46;;;;;;;0.05;0.05;;;8.50;99.90;;;;;;5036180;28;20045;-88
2023/12/16 12:46:16;;;;;;;2.35;1.55;;;8.50;99.90;;;;;;5061548;28;20049;-88
2023/12/16 12:48:53;;;;;;;2.92;1.05;;;9.40;99.90;;;;;;5035793;28;20240;-88
2023/12/16 12:51:19;;;;;;;0.20;0.20;;;8.50;99.90;;;;;;5019804;28;20056;-87
2023/12/16 12:53:57;;;;;;;1.02;0.93;;;8.50;99.90;;;;;;5036256;28;20040;-88
2023/12/16 12:56:23;;;;;;;1.65;1.55;;;8.50;25.30;;;;;;5036327;28;20087;-88